BHS258 MYGF-MYNN
Flight info
| Callsign | BHS258 |
|---|---|
| Flight time | 0h 38m |
| Altitude | FL110 |
| Route | CEGUR BR63V HANKX Y307 ZQA |
| Aircraft | A748/M-SDFHY/C |
Departure
| Time | 2026-04-26 15:31 |
|---|---|
| Airport | Grand Bahama International Airport (MYGF) |
Arrival
| Time | 2026-04-26 16:09 |
|---|---|
| Airport | Lynden Pindling International Airport (MYNN) |
| Time | Latitude | Longitude | Altitude | Speed | Heading |
|---|---|---|---|---|---|
| 2026-04-26 15:12 | 26.54788 | -78.70395 | 16 ft | 0 kts | 81° |
| 2026-04-26 15:27 | 26.54794 | -78.70356 | 16 ft | 13 kts | 78° |
| 2026-04-26 15:27 | 26.54822 | -78.70191 | 16 ft | 27 kts | 77° |
| 2026-04-26 15:28 | 26.54930 | -78.70048 | 16 ft | 26 kts | 31° |
| 2026-04-26 15:28 | 26.55099 | -78.69929 | 16 ft | 32 kts | 34° |
| 2026-04-26 15:28 | 26.55292 | -78.69800 | 16 ft | 34 kts | 30° |
| 2026-04-26 15:28 | 26.55500 | -78.69651 | 16 ft | 37 kts | 31° |
| 2026-04-26 15:29 | 26.55704 | -78.69514 | 16 ft | 28 kts | 32° |
| 2026-04-26 15:29 | 26.55845 | -78.69388 | 16 ft | 25 kts | 60° |
| 2026-04-26 15:29 | 26.56008 | -78.69071 | 16 ft | 27 kts | 61° |
| 2026-04-26 15:30 | 26.56149 | -78.68997 | 16 ft | 11 kts | 249° |
| 2026-04-26 15:30 | 26.56058 | -78.69192 | 16 ft | 58 kts | 241° |
| 2026-04-26 15:30 | 26.55770 | -78.69776 | 22 ft | 109 kts | 240° |
| 2026-04-26 15:31 | 26.55384 | -78.70584 | 277 ft | 124 kts | 240° |
| 2026-04-26 15:31 | 26.54526 | -78.72304 | 1126 ft | 127 kts | 240° |
| 2026-04-26 15:31 | 26.54121 | -78.73176 | 1556 ft | 125 kts | 241° |
| 2026-04-26 15:32 | 26.53480 | -78.74596 | 2266 ft | 123 kts | 227° |
| 2026-04-26 15:32 | 26.52414 | -78.74944 | 2794 ft | 129 kts | 169° |
| 2026-04-26 15:32 | 26.51600 | -78.74478 | 3203 ft | 136 kts | 149° |
| 2026-04-26 15:33 | 26.50792 | -78.73869 | 3530 ft | 146 kts | 148° |
| 2026-04-26 15:33 | 26.49917 | -78.73203 | 3856 ft | 156 kts | 147° |
| 2026-04-26 15:33 | 26.48997 | -78.72516 | 4172 ft | 163 kts | 148° |
| 2026-04-26 15:33 | 26.48150 | -78.71643 | 4487 ft | 170 kts | 131° |
| 2026-04-26 15:34 | 26.47472 | -78.70546 | 4817 ft | 174 kts | 121° |
| 2026-04-26 15:34 | 26.46915 | -78.69339 | 5149 ft | 176 kts | 115° |
| 2026-04-26 15:34 | 26.46467 | -78.68055 | 5480 ft | 179 kts | 109° |
| 2026-04-26 15:34 | 26.46121 | -78.66715 | 5810 ft | 181 kts | 104° |
| 2026-04-26 15:35 | 26.45864 | -78.65341 | 6137 ft | 182 kts | 100° |
| 2026-04-26 15:35 | 26.45675 | -78.63935 | 6466 ft | 184 kts | 97° |
| 2026-04-26 15:35 | 26.45538 | -78.62518 | 6825 ft | 183 kts | 96° |
| 2026-04-26 15:35 | 26.45442 | -78.61108 | 7197 ft | 182 kts | 94° |
| 2026-04-26 15:36 | 26.45342 | -78.59703 | 7570 ft | 181 kts | 97° |
| 2026-04-26 15:36 | 26.45106 | -78.58333 | 7943 ft | 180 kts | 104° |
| 2026-04-26 15:36 | 26.44744 | -78.56997 | 8317 ft | 180 kts | 109° |
| 2026-04-26 15:36 | 26.44282 | -78.55704 | 8695 ft | 179 kts | 114° |
| 2026-04-26 15:37 | 26.43745 | -78.54454 | 9069 ft | 179 kts | 117° |
| 2026-04-26 15:37 | 26.43150 | -78.53244 | 9443 ft | 178 kts | 121° |
| 2026-04-26 15:37 | 26.42512 | -78.52058 | 9819 ft | 178 kts | 123° |
| 2026-04-26 15:37 | 26.41845 | -78.50899 | 10192 ft | 178 kts | 124° |
| 2026-04-26 15:38 | 26.41153 | -78.49755 | 10567 ft | 178 kts | 126° |
| 2026-04-26 15:38 | 26.40441 | -78.48625 | 10924 ft | 179 kts | 127° |
| 2026-04-26 15:38 | 26.39683 | -78.47462 | 11054 ft | 194 kts | 127° |
| 2026-04-26 15:38 | 26.38838 | -78.46198 | 11024 ft | 213 kts | 128° |
| 2026-04-26 15:39 | 26.37914 | -78.44846 | 11012 ft | 225 kts | 128° |
| 2026-04-26 15:39 | 26.36948 | -78.43443 | 11005 ft | 231 kts | 129° |
| 2026-04-26 15:39 | 26.35950 | -78.42024 | 11003 ft | 235 kts | 129° |
| 2026-04-26 15:39 | 26.35271 | -78.41069 | 11003 ft | 236 kts | 129° |
| 2026-04-26 15:40 | 26.33895 | -78.39155 | 11001 ft | 239 kts | 129° |
| 2026-04-26 15:40 | 26.32840 | -78.37716 | 11000 ft | 240 kts | 129° |
| 2026-04-26 15:40 | 26.31791 | -78.36267 | 11002 ft | 241 kts | 129° |
| 2026-04-26 15:40 | 26.30759 | -78.34806 | 11001 ft | 241 kts | 129° |
| 2026-04-26 15:41 | 26.29731 | -78.33327 | 11001 ft | 241 kts | 129° |
| 2026-04-26 15:41 | 26.28701 | -78.31861 | 11001 ft | 241 kts | 129° |
| 2026-04-26 15:41 | 26.27665 | -78.30394 | 11002 ft | 241 kts | 129° |
| 2026-04-26 15:41 | 26.26629 | -78.28926 | 10999 ft | 241 kts | 129° |
| 2026-04-26 15:42 | 26.25593 | -78.27460 | 11002 ft | 241 kts | 129° |
| 2026-04-26 15:42 | 26.24556 | -78.25993 | 11005 ft | 241 kts | 129° |
| 2026-04-26 15:42 | 26.23525 | -78.24533 | 11006 ft | 241 kts | 129° |
| 2026-04-26 15:42 | 26.22486 | -78.23068 | 11007 ft | 241 kts | 130° |
| 2026-04-26 15:43 | 26.21437 | -78.21616 | 11008 ft | 241 kts | 130° |
| 2026-04-26 15:43 | 26.20394 | -78.20156 | 11008 ft | 241 kts | 130° |
| 2026-04-26 15:43 | 26.18312 | -78.17250 | 11014 ft | 241 kts | 130° |
| 2026-04-26 15:44 | 26.17263 | -78.15796 | 11014 ft | 241 kts | 130° |
| 2026-04-26 15:44 | 26.15174 | -78.12889 | 11014 ft | 241 kts | 129° |
| 2026-04-26 15:44 | 26.14124 | -78.11435 | 11013 ft | 241 kts | 129° |
| 2026-04-26 15:45 | 26.12024 | -78.08527 | 11013 ft | 241 kts | 129° |
| 2026-04-26 15:45 | 26.10982 | -78.07084 | 11014 ft | 241 kts | 129° |
| 2026-04-26 15:46 | 26.08876 | -78.04167 | 11013 ft | 241 kts | 129° |
| 2026-04-26 15:46 | 26.07826 | -78.02713 | 11017 ft | 241 kts | 129° |
| 2026-04-26 15:46 | 26.06777 | -78.01259 | 11017 ft | 241 kts | 129° |
| 2026-04-26 15:46 | 26.06428 | -78.00775 | 11017 ft | 241 kts | 129° |
| 2026-04-26 15:47 | 26.04681 | -77.98354 | 11018 ft | 241 kts | 129° |
| 2026-04-26 15:47 | 26.02583 | -77.95447 | 11019 ft | 241 kts | 129° |
| 2026-04-26 15:47 | 26.01538 | -77.93998 | 11021 ft | 241 kts | 129° |
| 2026-04-26 15:48 | 26.00488 | -77.92542 | 11025 ft | 241 kts | 129° |
| 2026-04-26 15:48 | 25.99439 | -77.91087 | 11022 ft | 241 kts | 129° |
| 2026-04-26 15:48 | 25.98391 | -77.89633 | 11024 ft | 241 kts | 129° |
| 2026-04-26 15:48 | 25.97346 | -77.88184 | 11023 ft | 241 kts | 129° |
| 2026-04-26 15:49 | 25.96296 | -77.86727 | 11024 ft | 241 kts | 129° |
| 2026-04-26 15:49 | 25.95248 | -77.85272 | 11023 ft | 241 kts | 129° |
| 2026-04-26 15:49 | 25.94199 | -77.83817 | 11023 ft | 241 kts | 129° |
| 2026-04-26 15:49 | 25.93154 | -77.82366 | 11023 ft | 241 kts | 129° |
| 2026-04-26 15:50 | 25.92104 | -77.80909 | 11023 ft | 241 kts | 129° |
| 2026-04-26 15:50 | 25.91056 | -77.79454 | 11022 ft | 241 kts | 129° |
| 2026-04-26 15:50 | 25.90013 | -77.78005 | 11022 ft | 241 kts | 129° |
| 2026-04-26 15:50 | 25.88965 | -77.76549 | 11022 ft | 241 kts | 129° |
| 2026-04-26 15:51 | 25.87918 | -77.75094 | 11021 ft | 241 kts | 129° |
| 2026-04-26 15:51 | 25.86868 | -77.73640 | 11022 ft | 241 kts | 129° |
| 2026-04-26 15:51 | 25.85813 | -77.72188 | 11021 ft | 241 kts | 129° |
| 2026-04-26 15:51 | 25.84768 | -77.70742 | 11023 ft | 241 kts | 129° |
| 2026-04-26 15:52 | 25.83715 | -77.69293 | 11023 ft | 241 kts | 129° |
| 2026-04-26 15:52 | 25.82667 | -77.67843 | 11022 ft | 241 kts | 129° |
| 2026-04-26 15:52 | 25.81609 | -77.66390 | 11024 ft | 241 kts | 129° |
| 2026-04-26 15:52 | 25.80912 | -77.65426 | 11023 ft | 241 kts | 129° |
| 2026-04-26 15:53 | 25.79507 | -77.63493 | 11023 ft | 241 kts | 129° |
| 2026-04-26 15:53 | 25.78457 | -77.62043 | 11023 ft | 241 kts | 129° |
| 2026-04-26 15:53 | 25.77407 | -77.60600 | 11022 ft | 241 kts | 129° |
| 2026-04-26 15:53 | 25.76355 | -77.59148 | 11021 ft | 241 kts | 129° |
| 2026-04-26 15:54 | 25.75298 | -77.57700 | 11019 ft | 241 kts | 129° |
| 2026-04-26 15:54 | 25.74247 | -77.56248 | 11018 ft | 241 kts | 129° |
| 2026-04-26 15:54 | 25.73196 | -77.54806 | 11018 ft | 241 kts | 129° |
| 2026-04-26 15:54 | 25.72142 | -77.53354 | 11017 ft | 241 kts | 129° |
| 2026-04-26 15:55 | 25.71043 | -77.51951 | 11014 ft | 241 kts | 136° |
| 2026-04-26 15:55 | 25.70197 | -77.51153 | 11017 ft | 240 kts | 144° |
| 2026-04-26 15:55 | 25.68779 | -77.50178 | 11018 ft | 239 kts | 154° |
| 2026-04-26 15:55 | 25.67253 | -77.49453 | 11018 ft | 239 kts | 162° |
| 2026-04-26 15:56 | 25.65680 | -77.48939 | 11018 ft | 233 kts | 168° |
| 2026-04-26 15:56 | 25.64102 | -77.48582 | 11021 ft | 231 kts | 172° |
| 2026-04-26 15:56 | 25.62517 | -77.48325 | 11020 ft | 229 kts | 175° |
| 2026-04-26 15:56 | 25.60941 | -77.48133 | 11020 ft | 227 kts | 176° |
| 2026-04-26 15:57 | 25.59370 | -77.47978 | 11020 ft | 226 kts | 178° |
| 2026-04-26 15:57 | 25.57807 | -77.47849 | 11020 ft | 226 kts | 178° |
| 2026-04-26 15:57 | 25.56244 | -77.47726 | 11022 ft | 225 kts | 178° |
| 2026-04-26 15:57 | 25.55202 | -77.47651 | 11021 ft | 225 kts | 179° |
| 2026-04-26 15:58 | 25.53127 | -77.47517 | 11022 ft | 225 kts | 179° |
| 2026-04-26 15:58 | 25.51564 | -77.47416 | 11023 ft | 225 kts | 179° |
| 2026-04-26 15:58 | 25.49996 | -77.47315 | 11024 ft | 225 kts | 179° |
| 2026-04-26 15:58 | 25.48430 | -77.47214 | 11026 ft | 225 kts | 179° |
| 2026-04-26 15:59 | 25.46872 | -77.47113 | 11029 ft | 225 kts | 179° |
| 2026-04-26 15:59 | 25.45305 | -77.47011 | 11029 ft | 226 kts | 179° |
| 2026-04-26 15:59 | 25.43736 | -77.46910 | 11029 ft | 226 kts | 179° |
| 2026-04-26 15:59 | 25.42169 | -77.46809 | 11029 ft | 226 kts | 179° |
| 2026-04-26 16:00 | 25.40601 | -77.46710 | 11029 ft | 226 kts | 179° |
| 2026-04-26 16:00 | 25.39038 | -77.46618 | 11030 ft | 226 kts | 179° |
| 2026-04-26 16:00 | 25.37466 | -77.46528 | 11029 ft | 226 kts | 179° |
| 2026-04-26 16:00 | 25.35931 | -77.46438 | 11025 ft | 217 kts | 179° |
| 2026-04-26 16:01 | 25.34457 | -77.46350 | 11023 ft | 210 kts | 179° |
| 2026-04-26 16:01 | 25.33016 | -77.46262 | 11025 ft | 205 kts | 179° |
| 2026-04-26 16:01 | 25.31626 | -77.46176 | 11000 ft | 203 kts | 179° |
| 2026-04-26 16:01 | 25.30182 | -77.46113 | 10680 ft | 210 kts | 184° |
| 2026-04-26 16:02 | 25.28750 | -77.46504 | 10343 ft | 213 kts | 204° |
| 2026-04-26 16:02 | 25.27444 | -77.47299 | 9948 ft | 218 kts | 216° |
| 2026-04-26 16:02 | 25.26262 | -77.48363 | 9552 ft | 221 kts | 225° |
| 2026-04-26 16:02 | 25.25550 | -77.49183 | 9287 ft | 223 kts | 230° |
| 2026-04-26 16:03 | 25.24291 | -77.51008 | 8755 ft | 226 kts | 237° |
| 2026-04-26 16:03 | 25.23468 | -77.52480 | 8354 ft | 223 kts | 241° |
| 2026-04-26 16:03 | 25.22726 | -77.53966 | 7920 ft | 221 kts | 242° |
| 2026-04-26 16:03 | 25.22005 | -77.55469 | 7444 ft | 222 kts | 243° |
| 2026-04-26 16:04 | 25.21246 | -77.56949 | 6970 ft | 222 kts | 240° |
| 2026-04-26 16:04 | 25.20430 | -77.58399 | 6490 ft | 223 kts | 235° |
| 2026-04-26 16:04 | 25.19379 | -77.59648 | 6024 ft | 222 kts | 223° |
| 2026-04-26 16:04 | 25.18186 | -77.60723 | 5548 ft | 222 kts | 216° |
| 2026-04-26 16:05 | 25.16765 | -77.61345 | 5068 ft | 220 kts | 189° |
| 2026-04-26 16:05 | 25.15273 | -77.61184 | 4606 ft | 216 kts | 162° |
| 2026-04-26 16:05 | 25.14041 | -77.60295 | 4138 ft | 209 kts | 133° |
| 2026-04-26 16:05 | 25.13391 | -77.58971 | 3670 ft | 192 kts | 104° |
| 2026-04-26 16:06 | 25.13177 | -77.57573 | 3221 ft | 181 kts | 101° |
| 2026-04-26 16:06 | 25.12773 | -77.56284 | 2768 ft | 174 kts | 114° |
| 2026-04-26 16:06 | 25.12157 | -77.55181 | 2430 ft | 164 kts | 126° |
| 2026-04-26 16:06 | 25.11410 | -77.54264 | 2102 ft | 157 kts | 134° |
| 2026-04-26 16:07 | 25.10617 | -77.53466 | 1787 ft | 151 kts | 137° |
| 2026-04-26 16:07 | 25.09838 | -77.52713 | 1505 ft | 147 kts | 136° |
| 2026-04-26 16:07 | 25.09096 | -77.51954 | 1221 ft | 144 kts | 134° |
| 2026-04-26 16:07 | 25.08393 | -77.51181 | 944 ft | 142 kts | 134° |
| 2026-04-26 16:08 | 25.07689 | -77.50413 | 681 ft | 145 kts | 132° |
| 2026-04-26 16:08 | 25.07032 | -77.49619 | 644 ft | 128 kts | 130° |
| 2026-04-26 16:08 | 25.06434 | -77.48968 | 541 ft | 114 kts | 133° |
| 2026-04-26 16:08 | 25.05876 | -77.48353 | 353 ft | 113 kts | 131° |
| 2026-04-26 16:09 | 25.05333 | -77.47737 | 169 ft | 112 kts | 131° |
| 2026-04-26 16:09 | 25.04801 | -77.47140 | 34 ft | 101 kts | 132° |
| 2026-04-26 16:09 | 25.04407 | -77.46697 | 25 ft | 53 kts | 136° |
| 2026-04-26 16:09 | 25.04207 | -77.46479 | 25 ft | 30 kts | 134° |
| 2026-04-26 16:10 | 25.04122 | -77.46364 | 25 ft | 12 kts | 108° |
| 2026-04-26 16:10 | 25.04105 | -77.46279 | 25 ft | 15 kts | 103° |
| 2026-04-26 16:10 | 25.04089 | -77.46192 | 25 ft | 12 kts | 104° |
| 2026-04-26 16:10 | 25.04119 | -77.46137 | 25 ft | 3 kts | 335° |
| 2026-04-26 16:11 | 25.04173 | -77.46188 | 25 ft | 19 kts | 316° |
| 2026-04-26 16:11 | 25.04279 | -77.46301 | 25 ft | 24 kts | 317° |
| 2026-04-26 16:11 | 25.04367 | -77.46423 | 25 ft | 10 kts | 310° |
| 2026-04-26 16:11 | 25.04434 | -77.46481 | 25 ft | 18 kts | 318° |
| 2026-04-26 16:12 | 25.04524 | -77.46576 | 25 ft | 18 kts | 316° |
| 2026-04-26 16:12 | 25.04603 | -77.46661 | 25 ft | 21 kts | 315° |
| 2026-04-26 16:12 | 25.04751 | -77.46667 | 25 ft | 14 kts | 45° |
| 2026-04-26 16:13 | 25.04794 | -77.46619 | 25 ft | 5 kts | 41° |
| 2026-04-26 16:13 | 25.04821 | -77.46623 | 25 ft | 6 kts | 302° |
| 2026-04-26 16:13 | 25.04839 | -77.46651 | 25 ft | 4 kts | 312° |
| 2026-04-26 16:13 | 25.04850 | -77.46665 | 25 ft | 0 kts | 313° |